createdAt,value
2022-10-11T00:00:26.013Z,12.99
2022-10-11T00:02:56.089Z,13.01
2022-10-11T00:05:26.669Z,13.05
2022-10-11T00:07:56.908Z,13.04
2022-10-11T00:10:27.580Z,13.01
2022-10-11T00:12:57.679Z,13.04
2022-10-11T00:15:30.416Z,13.08
2022-10-11T00:18:05.108Z,13.09
2022-10-11T00:20:35.574Z,13.09
2022-10-11T00:23:05.718Z,13.06
2022-10-11T00:25:35.951Z,13.08
2022-10-11T00:28:06.508Z,13.10
2022-10-11T00:30:39.346Z,13.09
2022-10-11T00:33:09.510Z,13.05
2022-10-11T00:35:43.228Z,13.04
2022-10-11T00:38:13.368Z,13.04
2022-10-11T00:40:43.640Z,12.94
2022-10-11T00:43:19.575Z,12.94
2022-10-11T00:46:09.946Z,12.92
2022-10-11T00:48:44.078Z,12.94
2022-10-11T00:51:19.906Z,12.95
2022-10-11T00:53:52.751Z,12.95
2022-10-11T00:56:26.875Z,12.94
2022-10-11T00:58:59.106Z,12.97
2022-10-11T01:01:31.925Z,12.94
2022-10-11T01:04:02.420Z,12.94
2022-10-11T01:06:32.517Z,12.91
2022-10-11T01:09:03.056Z,12.91
2022-10-11T01:11:34.266Z,12.91
2022-10-11T01:14:21.233Z,12.88
2022-10-11T01:16:59.645Z,12.89
2022-10-11T01:19:47.509Z,12.85
2022-10-11T01:22:39.641Z,12.82
2022-10-11T01:25:27.782Z,12.82
2022-10-11T01:28:18.675Z,12.77
2022-10-11T01:30:53.207Z,12.67
2022-10-11T01:33:30.553Z,12.62
2022-10-11T01:36:13.440Z,12.57
2022-10-11T01:38:48.662Z,12.55
2022-10-11T01:41:24.538Z,12.48
2022-10-11T01:43:58.066Z,12.42
2022-10-11T01:46:32.439Z,12.36
2022-10-11T01:49:04.349Z,12.30
2022-10-11T01:51:37.497Z,12.28
2022-10-11T01:54:17.347Z,12.23
2022-10-11T01:57:07.576Z,12.21
2022-10-11T01:59:49.228Z,12.17
2022-10-11T02:02:35.463Z,12.18
2022-10-11T02:05:12.930Z,12.20
2022-10-11T02:07:48.028Z,12.20
2022-10-11T02:10:24.198Z,12.17
2022-10-11T02:13:00.147Z,12.20
2022-10-11T02:15:34.013Z,12.18
2022-10-11T02:18:12.133Z,12.20
2022-10-11T02:20:45.496Z,12.21
2022-10-11T02:23:18.194Z,12.21
2022-10-11T02:25:49.038Z,12.21
2022-10-11T02:28:25.455Z,12.23
2022-10-11T02:30:57.612Z,12.23
2022-10-11T02:33:36.291Z,12.23
2022-10-11T02:36:14.053Z,12.25
2022-10-11T02:38:50.569Z,12.25
2022-10-11T02:41:30.320Z,12.25
2022-10-11T02:44:05.828Z,12.25
2022-10-11T02:46:37.479Z,12.23
2022-10-11T02:49:11.480Z,12.10
2022-10-11T02:51:41.740Z,12.20
2022-10-11T02:54:11.966Z,12.16
2022-10-11T02:56:42.066Z,12.14
2022-10-11T02:59:12.115Z,12.18
2022-10-11T03:01:42.445Z,12.22
2022-10-11T03:04:15.208Z,12.27
2022-10-11T03:06:45.295Z,12.26
2022-10-11T03:09:15.384Z,12.27
2022-10-11T03:11:45.542Z,12.26
2022-10-11T03:14:15.656Z,12.25
2022-10-11T03:16:45.825Z,12.21
2022-10-11T03:19:19.531Z,12.22
2022-10-11T03:21:49.912Z,12.21
2022-10-11T03:24:20.103Z,12.20
2022-10-11T03:26:50.244Z,12.23
2022-10-11T03:29:20.379Z,12.24
2022-10-11T03:31:50.570Z,12.24
2022-10-11T03:34:26.093Z,12.26
2022-10-11T03:36:56.599Z,12.26
2022-10-11T03:39:26.740Z,12.29
2022-10-11T03:41:56.829Z,12.30
2022-10-11T03:44:27.172Z,12.33
2022-10-11T03:46:57.246Z,12.32
2022-10-11T03:49:30.023Z,12.35
2022-10-11T03:52:00.189Z,12.34
2022-10-11T03:54:30.539Z,12.30
2022-10-11T03:57:01.054Z,12.24
2022-10-11T03:59:31.372Z,12.21
2022-10-11T04:02:01.716Z,12.17
2022-10-11T04:04:35.875Z,12.13
2022-10-11T04:07:06.158Z,12.08
2022-10-11T04:09:36.624Z,11.93
2022-10-11T04:12:07.045Z,11.97
2022-10-11T04:14:37.168Z,11.94
2022-10-11T04:17:07.229Z,11.92
2022-10-11T04:19:40.259Z,11.92
2022-10-11T04:22:10.632Z,11.93
2022-10-11T04:24:40.809Z,11.95
2022-10-11T04:27:11.268Z,11.92
2022-10-11T04:29:41.402Z,11.92
2022-10-11T04:32:11.449Z,11.92
2022-10-11T04:34:44.373Z,11.94
2022-10-11T04:37:14.602Z,11.86
2022-10-11T04:39:44.742Z,11.98
2022-10-11T04:42:14.830Z,11.99
2022-10-11T04:44:44.964Z,11.99
2022-10-11T04:47:15.270Z,11.97
2022-10-11T04:49:48.420Z,11.99
2022-10-11T04:52:22.119Z,11.96
2022-10-11T04:54:54.840Z,11.89
2022-10-11T04:57:28.063Z,11.88
2022-10-11T04:59:58.558Z,11.83
2022-10-11T05:02:28.771Z,11.76
2022-10-11T05:05:01.600Z,11.70
2022-10-11T05:07:31.723Z,11.69
2022-10-11T05:10:01.768Z,11.71
2022-10-11T05:12:31.939Z,11.74
2022-10-11T05:15:02.152Z,11.78
2022-10-11T05:17:32.457Z,11.84
2022-10-11T05:20:05.252Z,11.84
2022-10-11T05:22:36.337Z,11.92
2022-10-11T05:25:07.049Z,11.96
2022-10-11T05:27:37.205Z,11.97
2022-10-11T05:30:08.511Z,12.03
2022-10-11T05:32:38.641Z,11.99
2022-10-11T05:35:14.798Z,11.98
2022-10-11T05:37:44.986Z,12.03
2022-10-11T05:40:16.482Z,12.08
2022-10-11T05:42:46.527Z,12.11
2022-10-11T05:45:16.724Z,12.10
2022-10-11T05:47:46.915Z,12.24
2022-10-11T05:50:24.144Z,12.35
2022-10-11T05:52:57.260Z,12.43
2022-10-11T05:55:27.660Z,12.47
2022-10-11T05:57:58.843Z,12.59
2022-10-11T06:00:29.030Z,12.72
2022-10-11T06:02:59.224Z,12.89
2022-10-11T06:05:31.892Z,13.10
2022-10-11T06:08:02.289Z,13.25
2022-10-11T06:10:32.592Z,13.32
2022-10-11T06:13:02.740Z,13.34
2022-10-11T06:15:33.109Z,13.38
2022-10-11T06:18:03.982Z,13.47
2022-10-11T06:20:38.327Z,13.55
2022-10-11T06:23:08.414Z,13.60
2022-10-11T06:25:38.484Z,13.71
2022-10-11T06:28:08.637Z,13.76
2022-10-11T06:30:38.877Z,13.88
2022-10-11T06:33:08.932Z,13.95
2022-10-11T06:35:41.676Z,14.22
2022-10-11T06:38:11.748Z,14.50
2022-10-11T06:40:42.314Z,14.77
2022-10-11T06:43:12.408Z,14.96
2022-10-11T06:45:42.485Z,15.24
2022-10-11T06:48:12.545Z,15.48
2022-10-11T06:50:59.605Z,15.70
2022-10-11T06:53:31.020Z,15.90
2022-10-11T06:56:05.449Z,16.01
2022-10-11T06:58:36.857Z,15.97
2022-10-11T07:01:08.535Z,16.20
2022-10-11T07:03:38.968Z,16.45
2022-10-11T07:06:13.949Z,16.78
2022-10-11T07:08:44.269Z,16.42
2022-10-11T07:11:16.371Z,16.50
2022-10-11T07:13:51.294Z,16.72
2022-10-11T07:16:22.831Z,16.66
2022-10-11T07:19:00.199Z,16.52
2022-10-11T07:21:35.593Z,16.65
2022-10-11T07:24:06.536Z,16.71
2022-10-11T07:26:38.603Z,16.78
2022-10-11T07:29:11.216Z,16.73
2022-10-11T07:31:43.499Z,16.67
2022-10-11T07:34:14.544Z,16.81
2022-10-11T07:36:47.176Z,17.03
2022-10-11T07:39:17.672Z,17.49
2022-10-11T07:41:47.767Z,17.60
2022-10-11T07:44:17.865Z,17.97
2022-10-11T07:46:47.977Z,18.55
2022-10-11T07:49:18.140Z,18.83
2022-10-11T07:51:50.971Z,18.82
2022-10-11T07:54:21.059Z,18.88
2022-10-11T07:56:51.218Z,18.93
2022-10-11T07:59:21.397Z,18.90
2022-10-11T08:01:52.062Z,18.94
2022-10-11T08:04:22.209Z,19.03
2022-10-11T08:06:54.856Z,19.26
2022-10-11T08:09:25.072Z,19.59
2022-10-11T08:11:55.149Z,19.97
2022-10-11T08:14:25.478Z,20.53
2022-10-11T08:16:55.584Z,20.82
2022-10-11T08:19:25.828Z,20.74
2022-10-11T08:21:58.618Z,21.13
2022-10-11T08:24:28.839Z,21.19
2022-10-11T08:26:58.933Z,20.95
2022-10-11T08:29:28.999Z,20.89
2022-10-11T08:31:59.218Z,20.68
2022-10-11T08:34:29.339Z,20.71
2022-10-11T08:37:02.088Z,20.84
2022-10-11T08:39:32.321Z,20.93
2022-10-11T08:42:08.050Z,21.06
2022-10-11T08:45:09.092Z,21.08
2022-10-11T08:47:38.570Z,21.17
2022-10-11T08:50:11.137Z,21.25
2022-10-11T08:52:51.509Z,21.00
2022-10-11T08:55:28.948Z,21.32
2022-10-11T08:58:00.321Z,21.49
2022-10-11T09:00:34.392Z,21.51
2022-10-11T09:03:26.361Z,21.54
2022-10-11T09:06:20.558Z,21.15
2022-10-11T09:09:26.424Z,21.30
2022-10-11T09:12:12.356Z,21.27
2022-10-11T09:15:06.010Z,21.76
2022-10-11T09:18:00.000Z,22.03
2022-10-11T09:20:51.966Z,22.42
2022-10-11T09:23:41.211Z,23.10
2022-10-11T09:26:21.809Z,23.31
2022-10-11T09:29:01.322Z,23.13
2022-10-11T09:31:31.918Z,22.97
2022-10-11T09:34:08.875Z,22.93
2022-10-11T09:36:44.358Z,23.04
2022-10-11T09:39:27.831Z,23.12
2022-10-11T09:42:05.363Z,23.24
2022-10-11T09:44:39.286Z,23.27
2022-10-11T09:47:13.385Z,23.39
2022-10-11T09:49:49.120Z,23.32
2022-10-11T09:52:21.831Z,23.22
2022-10-11T09:54:57.042Z,22.99
2022-10-11T09:57:31.819Z,22.75
2022-10-11T10:00:05.108Z,22.76
2022-10-11T10:02:43.992Z,22.57
2022-10-11T10:05:21.279Z,22.58
2022-10-11T10:08:08.216Z,22.90
2022-10-11T10:10:41.737Z,22.52
2022-10-11T10:13:22.865Z,22.61
2022-10-11T10:15:55.181Z,22.57
2022-10-11T10:18:30.070Z,22.50
2022-10-11T10:21:02.418Z,22.21
2022-10-11T10:23:34.941Z,22.03
2022-10-11T10:26:15.840Z,22.00
2022-10-11T10:29:08.284Z,21.88
2022-10-11T10:32:01.943Z,21.80
2022-10-11T10:34:34.632Z,21.84
2022-10-11T10:37:09.387Z,21.83
2022-10-11T10:39:46.029Z,21.64
2022-10-11T10:42:19.669Z,21.44
2022-10-11T10:45:00.163Z,21.47
2022-10-11T10:47:49.031Z,21.57
2022-10-11T10:50:25.806Z,21.56
2022-10-11T10:53:07.522Z,21.65
2022-10-11T10:55:43.292Z,21.50
2022-10-11T10:58:28.303Z,21.49
2022-10-11T11:01:05.482Z,21.48
2022-10-11T11:03:39.702Z,21.30
2022-10-11T11:06:12.890Z,21.17
2022-10-11T11:09:00.588Z,20.99
2022-10-11T11:11:42.064Z,21.05
2022-10-11T11:14:26.907Z,20.88
2022-10-11T11:17:09.432Z,20.92
2022-10-11T11:19:56.582Z,21.21
2022-10-11T11:22:34.122Z,21.40
2022-10-11T11:25:15.634Z,21.57
2022-10-11T11:27:56.285Z,21.56
2022-10-11T11:30:36.740Z,21.74
2022-10-11T11:33:22.190Z,21.83
2022-10-11T11:35:56.301Z,22.06
2022-10-11T11:38:32.510Z,22.00
2022-10-11T11:41:06.233Z,21.85
2022-10-11T11:43:41.311Z,22.17
2022-10-11T11:46:16.774Z,22.06
2022-10-11T11:48:51.779Z,22.00
2022-10-11T11:51:30.536Z,22.22
2022-10-11T11:54:14.600Z,22.27
2022-10-11T11:56:56.377Z,22.39
2022-10-11T11:59:32.401Z,22.45
2022-10-11T12:02:18.743Z,22.35
2022-10-11T12:04:52.823Z,22.27
2022-10-11T12:07:25.691Z,22.31
2022-10-11T12:10:16.769Z,22.44
2022-10-11T12:12:47.495Z,22.24
2022-10-11T12:15:26.365Z,22.44
2022-10-11T12:18:09.319Z,22.44
2022-10-11T12:20:43.592Z,22.33
2022-10-11T12:23:42.334Z,22.29
2022-10-11T12:26:37.050Z,22.33
2022-10-11T12:29:28.431Z,22.54
2022-10-11T12:32:55.246Z,22.37
2022-10-11T12:35:52.738Z,22.32
2022-10-11T12:38:25.529Z,22.26
2022-10-11T12:40:57.305Z,22.31
2022-10-11T12:43:36.322Z,22.31
2022-10-11T12:46:43.800Z,22.19
2022-10-11T12:49:29.185Z,22.08
2022-10-11T12:52:05.798Z,22.09
2022-10-11T12:54:56.580Z,22.13
2022-10-11T12:57:47.805Z,22.10
2022-10-11T13:00:28.074Z,22.19
2022-10-11T13:02:59.650Z,22.13
2022-10-11T13:05:34.817Z,22.05
2022-10-11T13:08:12.705Z,21.99
2022-10-11T13:10:50.189Z,21.83
2022-10-11T13:13:25.657Z,21.86
2022-10-11T13:16:02.100Z,21.77
2022-10-11T13:18:41.236Z,21.84
2022-10-11T13:21:34.727Z,21.73
2022-10-11T13:24:15.768Z,21.77
2022-10-11T13:26:48.349Z,21.77
2022-10-11T13:29:21.551Z,21.62
2022-10-11T13:31:52.627Z,21.53
2022-10-11T13:34:24.327Z,21.42
2022-10-11T13:36:59.673Z,21.33
2022-10-11T13:39:36.924Z,21.24
2022-10-11T13:42:11.654Z,21.18
2022-10-11T13:44:42.584Z,21.29
2022-10-11T13:47:16.168Z,21.15
2022-10-11T13:49:50.564Z,21.23
2022-10-11T13:52:26.678Z,21.26
2022-10-11T13:55:10.062Z,21.32
2022-10-11T13:57:42.669Z,21.42
2022-10-11T14:00:27.182Z,21.47
2022-10-11T14:03:01.764Z,21.42
2022-10-11T14:05:36.542Z,21.48
2022-10-11T14:08:09.086Z,21.38
2022-10-11T14:10:41.850Z,21.37
2022-10-11T14:13:26.901Z,21.33
2022-10-11T14:16:09.180Z,21.28
2022-10-11T14:18:46.046Z,21.21
2022-10-11T14:21:35.038Z,21.11
2022-10-11T14:24:10.592Z,20.94
2022-10-11T14:26:46.319Z,20.90
2022-10-11T14:29:23.467Z,20.82
2022-10-11T14:31:56.498Z,20.71
2022-10-11T14:34:28.769Z,20.71
2022-10-11T14:36:58.897Z,20.67
2022-10-11T14:39:32.534Z,20.62
2022-10-11T14:42:05.344Z,20.54
2022-10-11T14:44:35.799Z,20.49
2022-10-11T14:47:07.166Z,20.39
2022-10-11T14:49:39.122Z,20.35
2022-10-11T14:52:10.986Z,20.40
2022-10-11T14:54:41.126Z,20.27
2022-10-11T14:57:16.096Z,20.19
2022-10-11T14:59:46.170Z,20.18
2022-10-11T15:02:16.367Z,20.10
2022-10-11T15:04:46.398Z,20.05
2022-10-11T15:07:16.555Z,20.01
2022-10-11T15:09:47.258Z,19.94
2022-10-11T15:12:19.994Z,19.91
2022-10-11T15:14:50.133Z,19.87
2022-10-11T15:17:20.321Z,19.86
2022-10-11T15:19:53.486Z,19.80
2022-10-11T15:22:23.602Z,19.74
2022-10-11T15:24:53.814Z,19.66
2022-10-11T15:27:28.811Z,19.63
2022-10-11T15:30:00.396Z,19.52
2022-10-11T15:32:30.606Z,19.49
2022-10-11T15:35:00.890Z,19.46
2022-10-11T15:37:37.378Z,19.40
2022-10-11T15:40:18.631Z,19.37
2022-10-11T15:42:51.990Z,19.31
2022-10-11T15:45:23.364Z,19.21
2022-10-11T15:47:54.511Z,19.15
2022-10-11T15:50:34.326Z,19.11
2022-10-11T15:53:05.512Z,19.05
2022-10-11T15:55:38.080Z,18.99
2022-10-11T15:58:16.376Z,18.89
2022-10-11T16:00:48.082Z,18.88
2022-10-11T16:03:19.769Z,18.78
2022-10-11T16:05:50.324Z,18.72
2022-10-11T16:08:20.496Z,18.60
2022-10-11T16:10:50.912Z,18.51
2022-10-11T16:13:23.970Z,18.43
2022-10-11T16:15:54.572Z,18.38
2022-10-11T16:18:24.822Z,18.33
2022-10-11T16:20:55.107Z,18.31
2022-10-11T16:23:25.871Z,18.29
2022-10-11T16:26:00.826Z,18.29
2022-10-11T16:28:36.478Z,18.29
2022-10-11T16:31:10.020Z,18.31
2022-10-11T16:33:46.097Z,18.28
2022-10-11T16:36:30.529Z,18.19
2022-10-11T16:39:00.896Z,18.21
2022-10-11T16:41:31.147Z,18.19
2022-10-11T16:44:04.009Z,18.10
2022-10-11T16:46:40.231Z,18.08
2022-10-11T16:49:18.002Z,17.99
2022-10-11T16:51:48.535Z,18.02
2022-10-11T16:54:20.743Z,18.01
2022-10-11T16:56:51.361Z,17.96
2022-10-11T16:59:24.286Z,17.91
2022-10-11T17:01:55.253Z,17.86
2022-10-11T17:04:25.455Z,17.82
2022-10-11T17:06:56.600Z,17.80
2022-10-11T17:09:27.517Z,17.68
2022-10-11T17:11:57.669Z,17.74
2022-10-11T17:14:30.531Z,17.71
2022-10-11T17:17:00.653Z,17.65
2022-10-11T17:19:33.483Z,17.63
2022-10-11T17:22:03.669Z,17.60
2022-10-11T17:24:33.885Z,17.58
2022-10-11T17:27:04.094Z,17.56
2022-10-11T17:29:37.326Z,17.56
2022-10-11T17:32:08.024Z,17.43
2022-10-11T17:34:38.221Z,17.50
2022-10-11T17:37:10.150Z,17.47
2022-10-11T17:39:40.918Z,17.45
2022-10-11T17:42:11.188Z,17.42
2022-10-11T17:44:43.876Z,17.39
2022-10-11T17:47:14.515Z,17.33
2022-10-11T17:49:44.681Z,17.31
2022-10-11T17:52:14.898Z,17.29
2022-10-11T17:54:45.015Z,17.20
2022-10-11T17:57:15.153Z,17.15
2022-10-11T17:59:54.020Z,17.17
2022-10-11T18:02:24.122Z,17.17
2022-10-11T18:04:54.328Z,17.17
2022-10-11T18:07:26.908Z,17.15
2022-10-11T18:09:57.591Z,17.14
2022-10-11T18:12:28.655Z,17.12
2022-10-11T18:15:01.418Z,17.10
2022-10-11T18:17:31.553Z,17.08
2022-10-11T18:20:01.833Z,17.06
2022-10-11T18:22:31.983Z,17.07
2022-10-11T18:25:02.126Z,17.06
2022-10-11T18:27:32.251Z,17.07
2022-10-11T18:30:05.047Z,17.07
2022-10-11T18:32:35.245Z,17.04
2022-10-11T18:35:05.344Z,17.04
2022-10-11T18:37:35.509Z,17.03
2022-10-11T18:40:06.009Z,16.99
2022-10-11T18:42:36.204Z,16.96
2022-10-11T18:45:10.394Z,16.90
2022-10-11T18:47:40.584Z,16.88
2022-10-11T18:50:11.487Z,16.91
2022-10-11T18:52:44.538Z,16.93
2022-10-11T18:55:14.939Z,16.92
2022-10-11T18:57:45.304Z,16.91
2022-10-11T19:00:39.577Z,16.87
2022-10-11T19:03:10.558Z,16.87
2022-10-11T19:05:41.604Z,16.89
2022-10-11T19:08:11.748Z,16.90
2022-10-11T19:10:41.845Z,16.91
2022-10-11T19:13:11.963Z,16.91
2022-10-11T19:15:44.651Z,16.85
2022-10-11T19:18:20.228Z,16.88
2022-10-11T19:20:50.688Z,16.92
2022-10-11T19:23:20.893Z,16.90
2022-10-11T19:25:51.117Z,16.89
2022-10-11T19:28:21.347Z,16.87
2022-10-11T19:30:54.194Z,16.86
2022-10-11T19:33:24.352Z,16.84
2022-10-11T19:35:57.643Z,16.81
2022-10-11T19:38:27.870Z,16.77
2022-10-11T19:40:58.201Z,16.78
2022-10-11T19:43:28.363Z,16.79
2022-10-11T19:46:05.549Z,16.80
2022-10-11T19:48:39.058Z,16.74
2022-10-11T19:51:11.778Z,16.78
2022-10-11T19:53:45.162Z,16.78
2022-10-11T19:56:18.156Z,16.80
2022-10-11T19:58:48.713Z,16.77
2022-10-11T20:01:23.121Z,16.79
2022-10-11T20:03:55.623Z,16.72
2022-10-11T20:06:27.205Z,16.68
2022-10-11T20:09:23.875Z,16.66
2022-10-11T20:11:48.081Z,16.66
2022-10-11T20:14:18.715Z,16.69
2022-10-11T20:16:52.509Z,16.70
2022-10-11T20:19:27.744Z,16.71
2022-10-11T20:22:00.559Z,16.69
2022-10-11T20:24:33.695Z,16.68
2022-10-11T20:27:05.480Z,16.68
2022-10-11T20:29:35.839Z,16.69
2022-10-11T20:32:08.527Z,16.66
2022-10-11T20:34:39.676Z,16.65
2022-10-11T20:37:09.798Z,16.64
2022-10-11T20:39:39.977Z,16.66
2022-10-11T20:42:10.129Z,16.65
2022-10-11T20:44:40.254Z,16.65
2022-10-11T20:47:12.974Z,16.63
2022-10-11T20:49:43.150Z,16.63
2022-10-11T20:52:13.369Z,16.61
2022-10-11T20:54:43.583Z,16.63
2022-10-11T20:57:13.741Z,16.59
2022-10-11T20:59:43.920Z,16.59
2022-10-11T21:02:18.930Z,16.58
2022-10-11T21:04:49.339Z,16.58
2022-10-11T21:07:19.444Z,16.56
2022-10-11T21:09:50.471Z,16.56
2022-10-11T21:12:20.533Z,16.55
2022-10-11T21:14:50.698Z,16.50
2022-10-11T21:17:23.466Z,16.50
2022-10-11T21:19:54.903Z,16.51
2022-10-11T21:22:25.106Z,16.51
2022-10-11T21:24:55.330Z,16.52
2022-10-11T21:27:25.517Z,16.52
2022-10-11T21:29:55.826Z,16.51
2022-10-11T21:32:28.605Z,16.50
2022-10-11T21:34:58.749Z,16.49
2022-10-11T21:37:28.930Z,16.47
2022-10-11T21:39:59.122Z,16.47
2022-10-11T21:42:33.460Z,16.40
2022-10-11T21:45:04.025Z,16.39
2022-10-11T21:47:39.208Z,16.37
2022-10-11T21:50:10.164Z,16.34
2022-10-11T21:52:40.322Z,16.31
2022-10-11T21:55:10.685Z,16.27
2022-10-11T21:57:40.779Z,16.20
2022-10-11T22:00:12.577Z,16.20
2022-10-11T22:02:45.272Z,16.15
2022-10-11T22:05:15.430Z,16.16
2022-10-11T22:07:50.991Z,16.12
2022-10-11T22:10:21.354Z,16.08
2022-10-11T22:12:51.576Z,16.06
2022-10-11T22:15:21.654Z,16.04
2022-10-11T22:17:55.203Z,16.02
2022-10-11T22:20:25.459Z,16.01
2022-10-11T22:22:55.654Z,15.99
2022-10-11T22:25:25.804Z,15.98
2022-10-11T22:27:55.955Z,15.93
2022-10-11T22:30:26.180Z,15.92
2022-10-11T22:32:59.658Z,15.92
2022-10-11T22:35:32.408Z,15.90
2022-10-11T22:38:06.441Z,15.90
2022-10-11T22:40:36.638Z,15.89
2022-10-11T22:43:06.687Z,15.88
2022-10-11T22:45:37.604Z,15.86
2022-10-11T22:48:10.610Z,15.84
2022-10-11T22:50:40.921Z,15.83
2022-10-11T22:53:12.135Z,15.83
2022-10-11T22:55:42.406Z,15.82
2022-10-11T22:58:12.766Z,15.80
2022-10-11T23:00:42.882Z,15.79
2022-10-11T23:03:18.774Z,15.79
2022-10-11T23:05:57.206Z,15.78
2022-10-11T23:08:27.847Z,15.74
2022-10-11T23:10:57.946Z,15.73
2022-10-11T23:13:28.171Z,15.74
2022-10-11T23:15:58.284Z,15.71
2022-10-11T23:18:31.080Z,15.71
2022-10-11T23:21:03.269Z,15.72
2022-10-11T23:23:33.468Z,15.64
2022-10-11T23:26:09.982Z,15.65
2022-10-11T23:28:43.485Z,15.67
2022-10-11T23:31:17.294Z,15.65
2022-10-11T23:33:50.899Z,15.61
2022-10-11T23:36:23.145Z,15.63
2022-10-11T23:38:55.856Z,15.60
2022-10-11T23:41:27.525Z,15.60
2022-10-11T23:43:58.227Z,15.58
2022-10-11T23:46:28.498Z,15.56
2022-10-11T23:49:01.179Z,15.53
2022-10-11T23:51:31.450Z,15.52
2022-10-11T23:54:01.693Z,15.39
2022-10-11T23:56:31.882Z,15.43
2022-10-11T23:59:04.617Z,15.43
